createdAt,value
2022-09-10T00:02:00.281Z,0.50
2022-09-10T00:04:28.468Z,0.50
2022-09-10T00:06:56.268Z,0.47
2022-09-10T00:09:24.047Z,0.47
2022-09-10T00:11:52.728Z,0.90
2022-09-10T00:14:22.749Z,0.52
2022-09-10T00:16:50.883Z,0.60
2022-09-10T00:19:19.514Z,0.45
2022-09-10T00:21:47.021Z,0.50
2022-09-10T00:24:15.193Z,0.70
2022-09-10T00:26:42.742Z,0.50
2022-09-10T00:29:15.081Z,0.60
2022-09-10T00:31:43.052Z,0.50
2022-09-10T00:34:12.881Z,0.40
2022-09-10T00:36:41.847Z,0.45
2022-09-10T00:39:11.723Z,0.60
2022-09-10T00:41:41.365Z,0.60
2022-09-10T00:44:47.814Z,0.40
2022-09-10T00:47:20.912Z,0.40
2022-09-10T00:49:51.580Z,0.43
2022-09-10T00:52:20.009Z,0.40
2022-09-10T00:54:48.904Z,0.30
2022-09-10T00:57:21.206Z,0.30
2022-09-10T00:59:54.754Z,0.75
2022-09-10T01:02:23.695Z,0.60
2022-09-10T01:04:51.561Z,0.57
2022-09-10T01:07:21.362Z,0.50
2022-09-10T01:09:49.270Z,0.68
2022-09-10T01:12:28.744Z,0.80
2022-09-10T01:15:09.243Z,1.10
2022-09-10T01:17:55.874Z,0.88
2022-09-10T01:20:46.883Z,0.70
2022-09-10T01:23:41.352Z,0.50
2022-09-10T01:26:23.411Z,0.57
2022-09-10T01:29:01.191Z,0.50
2022-09-10T01:31:34.756Z,0.40
2022-09-10T01:34:07.289Z,0.40
2022-09-10T01:36:39.488Z,0.40
2022-09-10T01:39:07.640Z,0.30
2022-09-10T01:41:35.069Z,0.40
2022-09-10T01:44:10.828Z,0.40
2022-09-10T01:46:48.982Z,0.30
2022-09-10T01:49:28.471Z,0.30
2022-09-10T01:52:13.080Z,0.40
2022-09-10T01:57:27.784Z,0.35
2022-09-10T02:00:05.843Z,0.57
2022-09-10T02:02:38.053Z,0.60
2022-09-10T02:05:07.695Z,0.60
2022-09-10T02:07:37.508Z,0.50
2022-09-10T02:10:07.289Z,0.50
2022-09-10T02:12:35.713Z,0.40
2022-09-10T02:15:07.879Z,0.57
2022-09-10T02:17:38.198Z,0.40
2022-09-10T02:20:11.707Z,0.50
2022-09-10T02:22:43.217Z,0.40
2022-09-10T02:25:11.274Z,0.50
2022-09-10T02:27:39.208Z,0.50
2022-09-10T02:30:08.975Z,0.30
2022-09-10T02:32:39.683Z,0.30
2022-09-10T02:35:08.168Z,0.40
2022-09-10T02:37:35.795Z,0.40
2022-09-10T02:40:04.480Z,0.40
2022-09-10T02:42:32.368Z,0.40
2022-09-10T02:45:00.195Z,0.50
2022-09-10T02:47:30.039Z,0.50
2022-09-10T02:49:57.550Z,0.52
2022-09-10T02:52:25.818Z,0.60
2022-09-10T02:54:53.163Z,0.70
2022-09-10T02:57:21.047Z,0.70
2022-09-10T02:59:48.415Z,0.70
2022-09-10T03:02:15.837Z,0.80
2022-09-10T03:04:44.513Z,0.68
2022-09-10T03:07:11.956Z,0.70
2022-09-10T03:09:41.080Z,0.60
2022-09-10T03:12:08.758Z,0.50
2022-09-10T03:14:36.091Z,0.40
2022-09-10T03:17:03.957Z,0.50
2022-09-10T03:19:31.312Z,0.60
2022-09-10T03:21:59.980Z,0.50
2022-09-10T03:24:28.349Z,0.50
2022-09-10T03:26:55.769Z,0.50
2022-09-10T03:29:24.334Z,0.50
2022-09-10T03:31:52.057Z,0.40
2022-09-10T03:34:20.397Z,0.40
2022-09-10T03:36:48.173Z,0.30
2022-09-10T03:39:18.368Z,0.30
2022-09-10T03:41:46.294Z,0.30
2022-09-10T03:44:13.692Z,0.30
2022-09-10T03:46:41.271Z,0.30
2022-09-10T03:49:08.931Z,0.30
2022-09-10T03:51:36.377Z,0.40
2022-09-10T03:54:03.757Z,0.40
2022-09-10T03:56:32.650Z,0.82
2022-09-10T03:59:00.253Z,0.47
2022-09-10T04:01:28.050Z,0.55
2022-09-10T04:03:56.702Z,0.65
2022-09-10T04:06:24.052Z,0.63
2022-09-10T04:08:52.868Z,0.60
2022-09-10T04:11:20.427Z,0.60
2022-09-10T04:13:49.092Z,0.50
2022-09-10T04:16:18.075Z,0.50
2022-09-10T04:18:45.488Z,0.47
2022-09-10T04:21:13.105Z,0.50
2022-09-10T04:23:41.189Z,0.68
2022-09-10T04:26:15.634Z,0.68
2022-09-10T04:28:42.955Z,0.70
2022-09-10T04:31:12.243Z,0.73
2022-09-10T04:33:40.360Z,0.57
2022-09-10T04:36:08.350Z,0.60
2022-09-10T04:38:40.091Z,0.55
2022-09-10T04:41:07.619Z,0.50
2022-09-10T04:43:35.004Z,0.50
2022-09-10T04:46:02.966Z,0.38
2022-09-10T04:48:33.259Z,0.40
2022-09-10T04:51:15.660Z,0.38
2022-09-10T04:53:43.868Z,0.30
2022-09-10T04:56:12.519Z,0.30
2022-09-10T04:58:41.114Z,0.30
2022-09-10T05:01:08.930Z,0.20
2022-09-10T05:03:37.794Z,0.30
2022-09-10T05:06:05.868Z,0.20
2022-09-10T05:08:33.376Z,0.30
2022-09-10T05:11:02.847Z,0.40
2022-09-10T05:13:31.578Z,0.65
2022-09-10T05:15:59.646Z,0.40
2022-09-10T05:18:27.180Z,0.50
2022-09-10T05:20:55.940Z,0.40
2022-09-10T05:23:23.286Z,0.40
2022-09-10T05:25:50.688Z,0.40
2022-09-10T05:28:18.032Z,0.40
2022-09-10T05:30:50.837Z,0.40
2022-09-10T05:33:18.992Z,0.50
2022-09-10T05:35:49.140Z,0.60
2022-09-10T05:38:17.946Z,0.50
2022-09-10T05:40:45.601Z,0.40
2022-09-10T05:43:12.969Z,0.40
2022-09-10T05:45:40.364Z,0.40
2022-09-10T05:48:07.731Z,0.40
2022-09-10T05:50:35.076Z,0.40
2022-09-10T05:53:02.433Z,0.40
2022-09-10T05:55:33.022Z,0.50
2022-09-10T05:58:00.353Z,0.50
2022-09-10T06:00:27.760Z,0.40
2022-09-10T06:02:57.426Z,0.30
2022-09-10T06:05:24.907Z,0.73
2022-09-10T06:07:52.303Z,0.45
2022-09-10T06:10:19.814Z,0.30
2022-09-10T06:12:49.566Z,0.30
2022-09-10T06:15:17.154Z,0.30
2022-09-10T06:17:44.628Z,0.50
2022-09-10T06:20:13.945Z,0.50
2022-09-10T06:22:41.553Z,0.45
2022-09-10T06:25:09.919Z,0.38
2022-09-10T06:27:37.577Z,0.50
2022-09-10T06:30:07.286Z,0.50
2022-09-10T06:32:34.689Z,0.50
2022-09-10T06:35:02.064Z,0.65
2022-09-10T06:37:33.414Z,0.43
2022-09-10T06:40:01.039Z,0.30
2022-09-10T06:42:28.405Z,0.57
2022-09-10T06:44:55.913Z,0.77
2022-09-10T06:48:19.166Z,0.40
2022-09-10T06:50:12.399Z,0.40
2022-09-10T06:52:39.732Z,0.40
2022-09-10T06:55:08.226Z,0.50
2022-09-10T06:57:35.550Z,0.40
2022-09-10T07:00:03.345Z,0.30
2022-09-10T07:02:32.267Z,0.30
2022-09-10T07:04:59.648Z,0.40
2022-09-10T07:07:27.015Z,0.40
2022-09-10T07:09:55.391Z,0.30
2022-09-10T07:12:22.734Z,0.30
2022-09-10T07:14:50.099Z,0.40
2022-09-10T07:17:17.456Z,0.30
2022-09-10T07:19:46.849Z,0.50
2022-09-10T07:22:14.173Z,0.47
2022-09-10T07:24:41.528Z,0.30
2022-09-10T07:27:11.134Z,0.30
2022-09-10T07:29:38.489Z,0.40
2022-09-10T07:32:05.934Z,0.50
2022-09-10T07:34:33.300Z,0.47
2022-09-10T07:37:02.023Z,0.40
2022-09-10T07:39:29.372Z,0.57
2022-09-10T07:41:56.753Z,0.73
2022-09-10T07:44:24.088Z,0.90
2022-09-10T07:46:52.907Z,0.25
2022-09-10T07:49:20.708Z,0.30
2022-09-10T07:51:48.153Z,0.20
2022-09-10T07:54:17.248Z,0.30
2022-09-10T07:56:45.132Z,0.50
2022-09-10T07:59:14.028Z,0.50
2022-09-10T08:01:41.431Z,0.40
2022-09-10T08:04:09.738Z,0.30
2022-09-10T08:06:41.295Z,0.40
2022-09-10T08:09:08.879Z,0.30
2022-09-10T08:11:37.656Z,0.30
2022-09-10T08:14:05.097Z,0.30
2022-09-10T08:16:33.019Z,0.30
2022-09-10T08:19:00.647Z,0.30
2022-09-10T08:21:30.140Z,0.55
2022-09-10T08:23:57.525Z,0.35
2022-09-10T08:26:27.948Z,0.65
2022-09-10T08:28:57.750Z,0.65
2022-09-10T08:31:26.488Z,0.40
2022-09-10T08:33:56.731Z,0.40
2022-09-10T08:36:25.632Z,0.90
2022-09-10T08:38:58.285Z,0.40
2022-09-10T08:41:36.273Z,0.50
2022-09-10T08:44:11.576Z,0.30
2022-09-10T08:46:46.372Z,0.40
2022-09-10T08:49:17.500Z,0.60
2022-09-10T08:51:49.988Z,0.40
2022-09-10T08:54:22.538Z,0.40
2022-09-10T08:56:50.831Z,0.32
2022-09-10T08:59:24.134Z,0.30
2022-09-10T09:01:55.486Z,0.50
2022-09-10T09:04:32.936Z,0.80
2022-09-10T09:07:04.119Z,0.95
2022-09-10T09:09:31.475Z,0.60
2022-09-10T09:12:07.199Z,0.90
2022-09-10T09:14:49.447Z,0.90
2022-09-10T09:17:29.263Z,0.45
2022-09-10T09:20:05.985Z,0.40
2022-09-10T09:22:43.971Z,0.38
2022-09-10T09:25:22.725Z,0.40
2022-09-10T09:27:53.481Z,0.50
2022-09-10T09:30:24.712Z,0.50
2022-09-10T09:32:52.377Z,0.30
2022-09-10T09:35:28.987Z,0.50
2022-09-10T09:38:16.199Z,0.50
2022-09-10T09:40:47.975Z,0.45
2022-09-10T09:43:25.217Z,0.40
2022-09-10T09:45:54.353Z,0.40
2022-09-10T09:48:24.431Z,0.30
2022-09-10T09:50:56.399Z,0.40
2022-09-10T09:53:26.176Z,0.30
2022-09-10T09:55:55.987Z,0.52
2022-09-10T09:58:34.690Z,0.40
2022-09-10T10:01:21.557Z,0.40
2022-09-10T10:03:54.904Z,0.50
2022-09-10T10:06:25.538Z,0.60
2022-09-10T10:09:07.445Z,0.70
2022-09-10T10:11:47.785Z,0.50
2022-09-10T10:14:38.112Z,0.50
2022-09-10T10:17:30.639Z,0.60
2022-09-10T10:20:01.144Z,0.50
2022-09-10T10:22:31.900Z,0.43
2022-09-10T10:25:00.377Z,0.50
2022-09-10T10:27:32.733Z,0.60
2022-09-10T10:30:22.463Z,0.50
2022-09-10T10:32:54.625Z,0.40
2022-09-10T10:35:44.125Z,0.45
2022-09-10T10:38:26.693Z,0.40
2022-09-10T10:41:07.404Z,0.82
2022-09-10T10:43:47.607Z,0.82
2022-09-10T10:46:20.745Z,0.60
2022-09-10T10:49:05.372Z,0.40
2022-09-10T10:51:45.603Z,0.30
2022-09-10T10:54:37.393Z,0.38
2022-09-10T10:57:17.329Z,0.57
2022-09-10T10:59:55.299Z,0.70
2022-09-10T11:02:34.170Z,0.40
2022-09-10T11:05:16.104Z,0.57
2022-09-10T11:07:45.716Z,0.30
2022-09-10T11:10:21.819Z,0.30
2022-09-10T11:12:55.360Z,0.40
2022-09-10T11:15:30.245Z,0.30
2022-09-10T11:18:06.137Z,0.40
2022-09-10T11:20:42.398Z,0.60
2022-09-10T11:23:21.552Z,0.60
2022-09-10T11:25:56.145Z,0.50
2022-09-10T11:28:29.711Z,0.40
2022-09-10T11:31:01.797Z,0.40
2022-09-10T11:33:34.287Z,0.35
2022-09-10T11:36:11.616Z,0.40
2022-09-10T11:38:48.530Z,0.30
2022-09-10T11:41:19.600Z,0.40
2022-09-10T11:43:53.018Z,0.38
2022-09-10T11:46:25.456Z,0.30
2022-09-10T11:49:01.670Z,0.30
2022-09-10T11:51:33.605Z,0.30
2022-09-10T11:54:02.926Z,0.30
2022-09-10T11:56:43.946Z,0.38
2022-09-10T11:59:26.953Z,0.40
2022-09-10T12:02:23.350Z,0.30
2022-09-10T12:05:00.588Z,0.30
2022-09-10T12:07:46.416Z,0.40
2022-09-10T12:10:23.905Z,0.50
2022-09-10T12:12:51.316Z,0.60
2022-09-10T12:15:21.265Z,2.22
2022-09-10T12:17:54.281Z,0.50
2022-09-10T12:20:28.440Z,0.70
2022-09-10T12:25:33.873Z,0.55
2022-09-10T12:28:05.161Z,0.50
2022-09-10T12:30:53.561Z,1.55
2022-09-10T12:34:06.086Z,0.30
2022-09-10T12:37:17.102Z,0.30
2022-09-10T12:39:46.119Z,0.30
2022-09-10T12:42:36.684Z,0.40
2022-09-10T12:45:04.424Z,0.50
2022-09-10T12:47:44.167Z,0.52
2022-09-10T12:50:36.078Z,0.43
2022-09-10T12:53:34.958Z,0.40
2022-09-10T12:56:21.459Z,0.40
2022-09-10T12:59:05.343Z,0.38
2022-09-10T13:01:41.872Z,0.50
2022-09-10T13:04:24.469Z,0.50
2022-09-10T13:06:55.812Z,0.45
2022-09-10T13:09:26.294Z,0.45
2022-09-10T13:11:58.626Z,0.50
2022-09-10T13:14:30.777Z,0.50
2022-09-10T13:16:58.252Z,0.40
2022-09-10T13:19:51.553Z,0.47
2022-09-10T13:23:03.911Z,0.50
2022-09-10T13:25:41.457Z,0.30
2022-09-10T13:28:42.831Z,0.50
2022-09-10T13:31:19.456Z,0.70
2022-09-10T13:34:10.610Z,1.27
2022-09-10T13:36:48.026Z,1.40
2022-09-10T13:39:37.554Z,1.20
2022-09-10T13:42:20.667Z,0.90
2022-09-10T13:45:15.172Z,0.95
2022-09-10T13:47:48.327Z,0.60
2022-09-10T13:50:22.759Z,0.70
2022-09-10T13:52:56.744Z,0.90
2022-09-10T13:55:27.025Z,0.82
2022-09-10T13:57:59.524Z,0.60
2022-09-10T14:00:30.964Z,0.60
2022-09-10T14:03:01.516Z,0.80
2022-09-10T14:05:34.465Z,0.70
2022-09-10T14:08:06.976Z,0.55
2022-09-10T14:10:49.417Z,0.50
2022-09-10T14:13:22.679Z,0.60
2022-09-10T14:15:52.150Z,0.50
2022-09-10T14:18:21.706Z,0.60
2022-09-10T14:20:49.324Z,0.88
2022-09-10T14:23:17.920Z,1.13
2022-09-10T14:25:46.087Z,0.98
2022-09-10T14:28:23.399Z,1.10
2022-09-10T14:30:52.479Z,0.80
2022-09-10T14:33:25.293Z,0.90
2022-09-10T14:35:53.695Z,1.05
2022-09-10T14:38:24.236Z,0.80
2022-09-10T14:40:57.840Z,1.05
2022-09-10T14:43:31.714Z,0.77
2022-09-10T14:45:59.662Z,0.60
2022-09-10T14:48:33.438Z,0.60
2022-09-10T14:51:10.476Z,0.70
2022-09-10T14:53:38.401Z,0.50
2022-09-10T14:56:11.108Z,0.45
2022-09-10T14:58:38.472Z,0.50
2022-09-10T15:01:05.927Z,0.40
2022-09-10T15:03:35.635Z,0.55
2022-09-10T15:06:02.991Z,0.50
2022-09-10T15:08:30.344Z,0.60
2022-09-10T15:10:57.784Z,0.68
2022-09-10T15:13:25.172Z,0.57
2022-09-10T15:15:53.726Z,0.77
2022-09-10T15:18:22.534Z,0.70
2022-09-10T15:20:51.276Z,0.60
2022-09-10T15:23:21.686Z,0.60
2022-09-10T15:25:51.817Z,0.60
2022-09-10T15:28:19.173Z,0.68
2022-09-10T15:30:46.569Z,0.70
2022-09-10T15:33:14.973Z,0.70
2022-09-10T15:35:42.435Z,0.95
2022-09-10T15:38:13.594Z,0.50
2022-09-10T15:40:41.033Z,0.50
2022-09-10T15:43:08.577Z,0.85
2022-09-10T15:45:37.030Z,0.95
2022-09-10T15:48:05.113Z,0.75
2022-09-10T15:50:32.480Z,0.65
2022-09-10T15:53:00.444Z,0.63
2022-09-10T15:55:29.183Z,0.60
2022-09-10T15:57:56.534Z,0.40
2022-09-10T16:00:23.880Z,0.40
2022-09-10T16:02:52.990Z,0.40
2022-09-10T16:05:21.977Z,0.47
2022-09-10T16:07:49.582Z,0.40
2022-09-10T16:10:17.595Z,0.40
2022-09-10T16:12:46.288Z,0.40
2022-09-10T16:15:13.718Z,0.40
2022-09-10T16:17:42.153Z,0.40
2022-09-10T16:20:10.513Z,0.50
2022-09-10T16:22:37.868Z,0.50
2022-09-10T16:25:08.760Z,0.30
2022-09-10T16:27:43.067Z,0.40
2022-09-10T16:30:13.656Z,0.50
2022-09-10T16:32:41.011Z,0.50
2022-09-10T16:35:09.423Z,0.50
2022-09-10T16:37:37.372Z,0.63
2022-09-10T16:40:05.954Z,0.50
2022-09-10T16:42:33.332Z,0.60
2022-09-10T16:45:00.813Z,0.50
2022-09-10T16:47:29.504Z,0.60
2022-09-10T16:49:56.852Z,0.50
2022-09-10T16:52:24.284Z,0.52
2022-09-10T16:54:52.671Z,0.60
2022-09-10T16:57:21.233Z,0.60
2022-09-10T16:59:48.871Z,0.73
2022-09-10T17:02:16.381Z,0.70
2022-09-10T17:04:45.058Z,0.80
2022-09-10T17:07:12.404Z,1.00
2022-09-10T17:09:39.792Z,1.20
2022-09-10T17:12:08.686Z,1.00
2022-09-10T17:14:36.066Z,1.00
2022-09-10T17:17:03.411Z,0.88
2022-09-10T17:19:30.757Z,0.90
2022-09-10T17:21:59.423Z,0.90
2022-09-10T17:24:28.242Z,0.93
2022-09-10T17:26:56.164Z,1.00
2022-09-10T17:29:25.612Z,0.93
2022-09-10T17:34:39.384Z,0.50
2022-09-10T17:37:09.214Z,0.50
2022-09-10T17:39:36.640Z,0.55
2022-09-10T17:42:04.341Z,0.70
2022-09-10T17:44:31.833Z,0.70
2022-09-10T17:47:01.451Z,0.80
2022-09-10T17:49:28.879Z,0.80
2022-09-10T17:51:56.671Z,0.70
2022-09-10T17:54:25.341Z,0.50
2022-09-10T17:56:52.719Z,0.70
2022-09-10T17:59:21.850Z,1.33
2022-09-10T18:01:49.230Z,1.45
2022-09-10T18:04:16.603Z,1.90
2022-09-10T18:06:47.835Z,2.15
2022-09-10T18:09:17.862Z,2.20
2022-09-10T18:11:47.364Z,1.60
2022-09-10T18:14:18.388Z,1.60
2022-09-10T18:16:47.002Z,1.25
2022-09-10T18:19:16.716Z,1.10
2022-09-10T18:21:46.105Z,0.98
2022-09-10T18:24:15.045Z,0.80
2022-09-10T18:26:44.943Z,0.70
2022-09-10T18:29:15.459Z,0.60
2022-09-10T18:31:44.777Z,0.50
2022-09-10T18:34:17.562Z,0.40
2022-09-10T18:36:48.323Z,0.40
2022-09-10T18:39:15.987Z,0.43
2022-09-10T18:41:44.122Z,0.40
2022-09-10T18:44:16.406Z,0.47
2022-09-10T18:46:45.410Z,0.43
2022-09-10T18:49:17.903Z,0.40
2022-09-10T18:51:48.445Z,0.45
2022-09-10T18:54:17.767Z,0.47
2022-09-10T18:56:47.283Z,0.40
2022-09-10T18:59:19.982Z,0.30
2022-09-10T19:01:48.532Z,0.40
2022-09-10T19:04:18.919Z,0.32
2022-09-10T19:06:47.566Z,0.40
2022-09-10T19:09:16.740Z,0.40
2022-09-10T19:11:46.905Z,0.45
2022-09-10T19:14:19.133Z,0.40
2022-09-10T19:16:47.980Z,0.40
2022-09-10T19:19:18.345Z,0.50
2022-09-10T19:21:46.308Z,0.40
2022-09-10T19:24:14.305Z,0.40
2022-09-10T19:26:42.436Z,0.32
2022-09-10T19:29:11.994Z,0.40
2022-09-10T19:31:40.919Z,0.30
2022-09-10T19:34:09.258Z,0.40
2022-09-10T19:36:37.024Z,0.40
2022-09-10T19:39:06.951Z,0.30
2022-09-10T19:41:35.580Z,0.30
2022-09-10T19:44:03.722Z,0.50
2022-09-10T19:46:31.205Z,0.40
2022-09-10T19:49:01.409Z,0.40
2022-09-10T19:51:31.111Z,0.40
2022-09-10T19:54:01.086Z,0.30
2022-09-10T19:56:31.488Z,0.30
2022-09-10T19:58:59.876Z,0.30
2022-09-10T20:01:31.132Z,0.35
2022-09-10T20:04:01.603Z,0.30
2022-09-10T20:06:30.371Z,0.30
2022-09-10T20:08:57.758Z,0.30
2022-09-10T20:11:26.639Z,0.40
2022-09-10T20:13:56.189Z,0.43
2022-09-10T20:16:25.016Z,0.60
2022-09-10T20:18:52.856Z,0.60
2022-09-10T20:21:27.876Z,0.60
2022-09-10T20:23:56.648Z,1.33
2022-09-10T20:26:25.772Z,0.60
2022-09-10T20:28:55.610Z,0.60
2022-09-10T20:31:24.356Z,0.52
2022-09-10T20:33:55.259Z,0.60
2022-09-10T20:36:25.205Z,0.57
2022-09-10T20:38:53.386Z,0.50
2022-09-10T20:41:21.191Z,0.52
2022-09-10T20:43:51.649Z,0.50
2022-09-10T20:46:21.964Z,0.40
2022-09-10T20:48:50.855Z,0.40
2022-09-10T20:51:20.122Z,0.30
2022-09-10T20:53:49.252Z,0.40
2022-09-10T20:56:18.544Z,0.38
2022-09-10T20:58:47.748Z,0.30
2022-09-10T21:01:18.747Z,0.45
2022-09-10T21:03:47.479Z,0.40
2022-09-10T21:06:17.677Z,0.40
2022-09-10T21:08:45.063Z,0.40
2022-09-10T21:11:15.384Z,0.40
2022-09-10T21:13:44.747Z,0.40
2022-09-10T21:16:13.692Z,0.45
2022-09-10T21:18:42.496Z,0.50
2022-09-10T21:21:11.468Z,0.50
2022-09-10T21:23:43.604Z,0.50
2022-09-10T21:26:11.977Z,0.40
2022-09-10T21:28:41.431Z,0.50
2022-09-10T21:31:10.420Z,0.40
2022-09-10T21:33:38.167Z,0.40
2022-09-10T21:36:07.677Z,0.35
2022-09-10T21:38:35.919Z,0.88
2022-09-10T21:41:05.129Z,0.40
2022-09-10T21:43:34.508Z,0.40
2022-09-10T21:46:05.118Z,0.40
2022-09-10T21:48:35.782Z,0.43
2022-09-10T21:51:05.607Z,0.50
2022-09-10T21:53:33.788Z,0.50
2022-09-10T21:56:02.855Z,0.50
2022-09-10T21:58:33.038Z,0.43
2022-09-10T22:01:00.609Z,0.38
2022-09-10T22:03:31.049Z,0.40
2022-09-10T22:06:06.180Z,0.40
2022-09-10T22:08:34.064Z,0.40
2022-09-10T22:11:07.349Z,0.40
2022-09-10T22:13:34.850Z,0.40
2022-09-10T22:16:02.714Z,0.50
2022-09-10T22:18:31.661Z,0.40
2022-09-10T22:21:00.810Z,0.40
2022-09-10T22:23:29.979Z,0.43
2022-09-10T22:26:03.800Z,0.40
2022-09-10T22:28:34.971Z,0.65
2022-09-10T22:31:07.298Z,0.40
2022-09-10T22:33:38.003Z,0.40
2022-09-10T22:36:13.927Z,0.50
2022-09-10T22:38:41.790Z,0.50
2022-09-10T22:41:10.140Z,0.55
2022-09-10T22:43:38.544Z,0.50
2022-09-10T22:46:07.700Z,0.40
2022-09-10T22:48:37.811Z,0.40
2022-09-10T22:51:05.653Z,0.40
2022-09-10T22:53:33.209Z,0.40
2022-09-10T22:56:00.729Z,0.55
2022-09-10T22:58:28.068Z,0.60
2022-09-10T23:00:55.977Z,0.50
2022-09-10T23:03:23.606Z,0.40
2022-09-10T23:06:03.403Z,0.50
2022-09-10T23:08:31.981Z,0.50
2022-09-10T23:11:08.590Z,0.50
2022-09-10T23:13:36.122Z,0.50
2022-09-10T23:16:11.199Z,0.40
2022-09-10T23:18:39.530Z,0.50
2022-09-10T23:21:09.247Z,0.55
2022-09-10T23:23:37.013Z,0.60
2022-09-10T23:26:06.530Z,0.60
2022-09-10T23:28:34.026Z,0.60
2022-09-10T23:31:10.633Z,0.60
2022-09-10T23:33:37.995Z,0.57
2022-09-10T23:36:05.512Z,0.60
2022-09-10T23:38:36.313Z,0.50
2022-09-10T23:41:03.787Z,0.52
2022-09-10T23:43:31.145Z,0.40
2022-09-10T23:45:59.595Z,0.57
2022-09-10T23:48:27.266Z,0.60
2022-09-10T23:50:55.337Z,0.50
2022-09-10T23:53:25.226Z,0.70
2022-09-10T23:55:54.349Z,0.90
2022-09-10T23:58:22.339Z,0.80
